Time;durP1;ratioP1;P1;durP2;ratioP2;P2;SDS_P1;SDS_P2;PMS_P1;PMS_P2;Temp;Humidity;BMP_temperature;BMP_pressure;BME280_temperature;BME280_humidity;BME280_pressure;Samples;Min_cycle;Max_cycle;Signal;HPM_P1;HPM_P2
2023/01/05 00:02:24;;;;;;;1.92;0.40;;;10.60;75.30;;;;;;5000319;28;87748;-72
2023/01/05 00:04:50;;;;;;;1.77;0.30;;;10.60;75.40;;;;;;4998614;28;87325;-72
2023/01/05 00:07:15;;;;;;;1.73;0.30;;;10.50;76.00;;;;;;4998723;28;88402;-72
2023/01/05 00:09:41;;;;;;;1.25;0.20;;;10.40;75.90;;;;;;5000081;28;88072;-72
2023/01/05 00:23:07;;;;;;;1.42;0.28;;;10.20;77.90;;;;;;5001215;28;87643;-72
2023/01/05 00:25:36;;;;;;;1.38;0.20;;;10.20;78.40;;;;;;5000707;28;87532;-73
2023/01/05 00:28:02;;;;;;;0.80;0.10;;;10.20;75.90;;;;;;5001469;28;87355;-72
2023/01/05 00:30:35;;;;;;;1.33;0.13;;;10.20;75.00;;;;;;5002086;28;87632;-72
2023/01/05 00:33:00;;;;;;;0.80;0.10;;;10.30;75.20;;;;;;4999122;28;88210;-71
2023/01/05 00:35:28;;;;;;;0.85;0.10;;;10.30;74.40;;;;;;4998827;28;87390;-72
2023/01/05 00:37:54;;;;;;;0.80;0.10;;;10.40;74.10;;;;;;5000142;28;87257;-72
2023/01/05 00:40:21;;;;;;;1.33;0.10;;;10.40;73.90;;;;;;4997356;28;88670;-72
2023/01/05 00:42:47;;;;;;;1.15;0.13;;;10.40;74.10;;;;;;5000641;28;87943;-72
2023/01/05 00:45:15;;;;;;;1.30;0.10;;;10.50;73.70;;;;;;4997497;28;87551;-73
2023/01/05 00:47:41;;;;;;;0.90;0.10;;;10.50;74.60;;;;;;4997708;28;87197;-73
2023/01/05 00:50:09;;;;;;;2.65;0.10;;;10.50;74.10;;;;;;4999163;28;88712;-73
2023/01/05 00:52:35;;;;;;;1.70;0.30;;;10.50;75.00;;;;;;4996204;28;88073;-72
2023/01/05 00:55:00;;;;;;;2.45;0.30;;;10.50;75.00;;;;;;4999967;28;87066;-72
2023/01/05 00:57:26;;;;;;;1.33;0.32;;;10.50;74.60;;;;;;4999450;28;86727;-72
2023/01/05 00:59:52;;;;;;;2.53;0.10;;;10.50;75.40;;;;;;4996999;28;87618;-72
2023/01/05 01:02:18;;;;;;;1.55;0.20;;;10.60;75.10;;;;;;4999566;28;88065;-72
2023/01/05 01:04:43;;;;;;;1.10;0.10;;;10.50;74.60;;;;;;4998639;28;88442;-71
2023/01/05 01:07:09;;;;;;;0.82;0.13;;;10.50;74.40;;;;;;4997505;28;89200;-72
2023/01/05 01:09:36;;;;;;;1.92;0.15;;;10.50;73.50;;;;;;4998990;28;87239;-72
2023/01/05 01:12:01;;;;;;;1.50;0.13;;;10.50;73.90;;;;;;4998207;28;87552;-72
2023/01/05 01:14:27;;;;;;;2.53;0.30;;;10.50;73.50;;;;;;4998682;28;87429;-72
2023/01/05 01:16:53;;;;;;;1.08;0.10;;;10.40;71.80;;;;;;4996911;28;88271;-72
2023/01/05 01:19:22;;;;;;;1.48;0.10;;;10.40;71.60;;;;;;4997991;28;87621;-72
2023/01/05 01:21:48;;;;;;;0.85;0.10;;;10.50;71.90;;;;;;4998117;28;87894;-73
2023/01/05 01:24:20;;;;;;;0.50;0.10;;;10.50;70.40;;;;;;4998763;28;87335;-73
2023/01/05 01:26:46;;;;;;;0.57;0.10;;;10.60;69.80;;;;;;4998089;28;87264;-72
2023/01/05 01:29:12;;;;;;;0.93;0.10;;;10.70;70.40;;;;;;4995426;28;89225;-72
2023/01/05 01:31:38;;;;;;;1.15;0.10;;;10.70;69.60;;;;;;4992372;28;88370;-73
2023/01/05 01:34:04;;;;;;;0.60;0.13;;;10.70;68.00;;;;;;4999248;28;87451;-74
2023/01/05 01:36:30;;;;;;;0.70;0.10;;;10.80;67.80;;;;;;4996866;28;87164;-73
2023/01/05 01:38:56;;;;;;;1.58;0.10;;;10.90;66.00;;;;;;4999653;28;87536;-72
2023/01/05 01:41:21;;;;;;;0.77;0.10;;;11.00;65.10;;;;;;4997938;28;88390;-72
2023/01/05 01:43:53;;;;;;;0.70;0.10;;;11.10;64.20;;;;;;4997552;28;87956;-71
2023/01/05 01:46:20;;;;;;;2.50;0.10;;;11.20;64.90;;;;;;4999105;28;86308;-72
2023/01/05 01:48:53;;;;;;;0.50;0.00;;;11.20;63.70;;;;;;4998676;28;88194;-73
2023/01/05 01:51:35;;;;;;;0.50;0.08;;;11.20;64.90;;;;;;4994984;28;87344;-72
2023/01/05 01:54:05;;;;;;;0.80;0.10;;;11.30;64.80;;;;;;4997953;28;88311;-73
2023/01/05 01:56:37;;;;;;;;;;;11.40;62.90;;;;;;4999729;28;87362;-73
2023/01/05 01:59:03;;;;;;;1.58;0.00;;;11.40;66.10;;;;;;4999101;28;87577;-72
2023/01/05 02:01:29;;;;;;;0.90;0.00;;;11.40;63.80;;;;;;4997626;28;87366;-72
2023/01/05 02:03:55;;;;;;;0.57;0.00;;;11.50;64.70;;;;;;4997796;28;87533;-72
2023/01/05 02:06:21;;;;;;;0.80;0.00;;;11.50;64.00;;;;;;4998498;28;87383;-73
2023/01/05 02:08:47;;;;;;;0.68;0.00;;;11.50;65.00;;;;;;4996722;28;88106;-72
2023/01/05 02:11:25;;;;;;;0.30;0.00;;;11.50;64.50;;;;;;4996110;28;88272;-72
2023/01/05 02:13:57;;;;;;;0.20;0.00;;;11.60;64.40;;;;;;4991586;28;87269;-73
2023/01/05 02:16:34;;;;;;;0.82;0.10;;;11.70;62.50;;;;;;4998295;28;87327;-75
2023/01/05 02:19:18;;;;;;;0.95;0.00;;;11.70;62.60;;;;;;4996807;28;88604;-73
2023/01/05 02:22:12;;;;;;;1.08;0.10;;;11.80;62.80;;;;;;4997453;28;88414;-73
2023/01/05 02:25:11;;;;;;;1.85;0.10;;;11.80;62.40;;;;;;4994667;28;87682;-73
2023/01/05 02:28:13;;;;;;;0.50;0.00;;;11.80;63.00;;;;;;4996448;28;88855;-72
2023/01/05 02:31:18;;;;;;;0.38;0.03;;;11.80;61.90;;;;;;4991774;28;87596;-71
2023/01/05 02:34:21;;;;;;;0.40;0.03;;;11.80;61.80;;;;;;4992157;28;87387;-72
2023/01/05 02:36:58;;;;;;;0.98;0.08;;;11.80;64.20;;;;;;4996482;28;87686;-70
2023/01/05 02:39:23;;;;;;;;;;;11.80;62.10;;;;;;4997071;28;86458;-72
2023/01/05 02:41:57;;;;;;;1.35;0.10;;;11.70;62.00;;;;;;4997151;28;88876;-73
2023/01/05 02:44:28;;;;;;;0.40;0.00;;;11.60;63.80;;;;;;4994992;28;88116;-73
2023/01/05 02:47:19;;;;;;;0.20;0.00;;;11.60;64.40;;;;;;4997438;28;88259;-72
2023/01/05 02:49:45;;;;;;;0.30;0.00;;;11.60;64.80;;;;;;4985389;28;87308;-71
2023/01/05 02:52:11;;;;;;;1.40;0.10;;;11.60;64.50;;;;;;4991467;28;87874;-71
2023/01/05 02:54:46;;;;;;;0.80;0.10;;;11.70;64.70;;;;;;4996181;28;87425;-72
2023/01/05 02:57:49;;;;;;;0.45;0.08;;;11.60;64.20;;;;;;4997012;28;87409;-73
2023/01/05 03:00:39;;;;;;;1.48;0.10;;;11.60;64.90;;;;;;4990071;28;87684;-73
2023/01/05 03:03:14;;;;;;;0.60;0.10;;;11.50;65.60;;;;;;4998434;28;88121;-73
2023/01/05 03:05:49;;;;;;;0.98;0.10;;;11.30;65.50;;;;;;4996361;28;87250;-73
2023/01/05 03:08:22;;;;;;;0.82;0.10;;;11.30;66.60;;;;;;4993185;28;87494;-74
2023/01/05 03:13:50;;;;;;;0.68;0.10;;;11.30;67.70;;;;;;4995596;28;88733;-73
2023/01/05 03:16:25;;;;;;;0.40;0.03;;;11.20;66.80;;;;;;4996452;28;88380;-70
2023/01/05 03:35:37;;;;;;;1.10;0.10;;;11.00;68.60;;;;;;4997539;28;87159;-74
2023/01/05 03:38:11;;;;;;;0.88;0.03;;;11.00;68.20;;;;;;4997317;28;87423;-74
2023/01/05 03:40:38;;;;;;;0.40;0.10;;;11.00;66.80;;;;;;4994312;28;88310;-74
2023/01/05 03:43:05;;;;;;;0.68;0.10;;;11.00;67.60;;;;;;4996792;28;87102;-73
2023/01/05 03:45:41;;;;;;;1.02;0.00;;;11.00;67.50;;;;;;4993931;28;88688;-73
2023/01/05 03:48:06;;;;;;;0.75;0.10;;;11.00;67.00;;;;;;4997327;28;87803;-73
2023/01/05 03:50:33;;;;;;;0.93;0.10;;;11.10;67.80;;;;;;4995283;28;88873;-73
2023/01/05 03:52:59;;;;;;;0.77;0.05;;;11.10;69.50;;;;;;4989462;28;87364;-73
2023/01/05 03:55:25;;;;;;;0.47;0.17;;;11.20;69.50;;;;;;5003529;28;87444;-73
2023/01/05 03:57:50;;;;;;;3.03;0.10;;;11.20;72.10;;;;;;4995244;28;86991;-73
2023/01/05 04:00:16;;;;;;;1.60;0.10;;;11.20;71.60;;;;;;4996308;28;87650;-72
2023/01/05 04:02:42;;;;;;;0.40;0.00;;;11.20;69.60;;;;;;4997117;28;89012;-73
2023/01/05 04:05:08;;;;;;;1.25;0.20;;;11.10;69.40;;;;;;4997160;28;89007;-74
2023/01/05 04:07:33;;;;;;;0.65;0.10;;;11.00;69.40;;;;;;4995522;28;88685;-74
2023/01/05 04:10:00;;;;;;;0.93;0.20;;;10.90;69.40;;;;;;4996112;28;88935;-73
2023/01/05 04:12:25;;;;;;;0.80;0.10;;;10.90;69.00;;;;;;4999458;28;87320;-73
2023/01/05 04:14:51;;;;;;;1.35;0.10;;;10.80;69.20;;;;;;4998068;28;87544;-73
2023/01/05 04:17:17;;;;;;;0.65;0.10;;;10.70;70.00;;;;;;4996091;28;88814;-74
2023/01/05 04:19:42;;;;;;;0.60;0.10;;;10.80;69.80;;;;;;4999951;28;87127;-73
2023/01/05 04:22:08;;;;;;;0.43;0.03;;;10.70;70.40;;;;;;4998997;28;86700;-73
2023/01/05 04:24:34;;;;;;;2.10;0.03;;;10.80;72.10;;;;;;4999776;28;87654;-73
2023/01/05 04:26:59;;;;;;;0.65;0.10;;;10.80;72.10;;;;;;4999729;28;88418;-74
2023/01/05 04:29:25;;;;;;;0.40;0.00;;;10.90;73.50;;;;;;5001660;28;87946;-73
2023/01/05 04:31:50;;;;;;;0.80;0.00;;;11.00;74.90;;;;;;4999208;28;87376;-73
2023/01/05 04:34:16;;;;;;;0.90;0.03;;;11.00;75.60;;;;;;4999441;28;87718;-73
2023/01/05 04:36:42;;;;;;;1.17;0.00;;;11.10;76.50;;;;;;4998242;28;87955;-73
2023/01/05 04:39:07;;;;;;;0.30;0.10;;;11.20;77.50;;;;;;4999040;28;87519;-73
2023/01/05 04:41:33;;;;;;;0.50;0.00;;;11.30;77.60;;;;;;4998279;28;88322;-72
2023/01/05 04:43:59;;;;;;;0.57;0.00;;;11.30;77.30;;;;;;4998581;28;88758;-73
2023/01/05 04:46:24;;;;;;;0.60;0.10;;;11.20;77.30;;;;;;5009907;28;88429;-74
2023/01/05 04:48:50;;;;;;;0.40;0.00;;;11.30;77.60;;;;;;4999975;28;87430;-73
2023/01/05 04:51:15;;;;;;;0.63;0.10;;;11.30;77.10;;;;;;4997992;28;87624;-73
2023/01/05 04:53:41;;;;;;;1.42;0.10;;;11.30;76.70;;;;;;4997923;28;89158;-73
2023/01/05 04:56:09;;;;;;;1.48;0.10;;;11.20;76.20;;;;;;4996122;28;89909;-73
2023/01/05 04:58:35;;;;;;;0.75;0.10;;;11.20;74.80;;;;;;4996759;28;87406;-73
2023/01/05 05:01:01;;;;;;;1.33;0.20;;;10.90;75.00;;;;;;5000446;28;88259;-73
2023/01/05 05:03:26;;;;;;;1.40;0.10;;;10.80;76.00;;;;;;4993745;28;88166;-72
2023/01/05 05:05:52;;;;;;;2.42;0.10;;;10.70;76.30;;;;;;4994781;28;87576;-72
2023/01/05 05:08:17;;;;;;;0.52;0.10;;;10.60;76.50;;;;;;4996824;28;88291;-72
2023/01/05 05:10:43;;;;;;;0.82;0.10;;;10.60;77.20;;;;;;4999780;28;86621;-73
2023/01/05 05:13:09;;;;;;;0.30;0.00;;;10.70;78.20;;;;;;4998016;28;87704;-71
2023/01/05 05:15:34;;;;;;;0.60;0.08;;;10.80;78.30;;;;;;4999091;28;88039;-73
2023/01/05 05:18:00;;;;;;;0.38;0.00;;;10.90;77.30;;;;;;4998750;28;88381;-74
2023/01/05 05:20:26;;;;;;;0.63;0.00;;;11.00;76.70;;;;;;4998540;28;88208;-73
2023/01/05 05:22:51;;;;;;;1.17;0.00;;;11.10;76.70;;;;;;4997116;28;88181;-73
2023/01/05 05:25:17;;;;;;;0.77;0.10;;;11.10;75.30;;;;;;4998948;28;88542;-73
2023/01/05 05:27:42;;;;;;;0.75;0.00;;;11.20;76.00;;;;;;4997235;28;87493;-73
2023/01/05 05:30:09;;;;;;;0.35;0.00;;;11.40;75.90;;;;;;4999368;28;87287;-72
2023/01/05 05:32:34;;;;;;;0.38;0.10;;;11.50;74.50;;;;;;4998708;28;89436;-73
2023/01/05 05:35:00;;;;;;;0.40;0.10;;;11.60;74.60;;;;;;4997830;28;88545;-73
2023/01/05 05:37:26;;;;;;;0.40;0.00;;;11.60;74.00;;;;;;4997399;28;87803;-73
2023/01/05 05:39:51;;;;;;;2.10;0.00;;;11.70;74.10;;;;;;4999211;28;87550;-74
2023/01/05 05:42:17;;;;;;;0.32;0.00;;;11.80;72.40;;;;;;4998496;28;88552;-73
2023/01/05 05:44:43;;;;;;;0.32;0.00;;;11.80;74.00;;;;;;4998274;28;89346;-73
2023/01/05 05:47:08;;;;;;;0.40;0.00;;;11.80;75.10;;;;;;4995973;28;87396;-73
2023/01/05 05:49:34;;;;;;;3.42;0.03;;;11.80;75.20;;;;;;4999291;28;87106;-73
2023/01/05 05:51:59;;;;;;;0.43;0.00;;;11.90;77.80;;;;;;4998666;28;89041;-73
2023/01/05 05:54:25;;;;;;;0.35;0.00;;;12.00;74.80;;;;;;4998993;28;87793;-73
2023/01/05 05:56:51;;;;;;;0.95;0.10;;;12.00;73.60;;;;;;4989780;28;87992;-72
2023/01/05 05:59:16;;;;;;;0.43;0.00;;;11.90;71.90;;;;;;4991710;28;88256;-73
2023/01/05 06:01:42;;;;;;;1.55;0.00;;;11.80;72.30;;;;;;4997711;28;88131;-73
2023/01/05 06:04:08;;;;;;;0.40;0.10;;;11.80;73.40;;;;;;4997508;28;87735;-73
2023/01/05 06:06:33;;;;;;;0.47;0.00;;;11.80;72.20;;;;;;4998138;28;88374;-73
2023/01/05 06:08:59;;;;;;;0.57;0.00;;;11.70;72.10;;;;;;4993602;28;87289;-73
2023/01/05 06:11:25;;;;;;;0.77;0.10;;;11.80;74.90;;;;;;4994079;28;89224;-73
2023/01/05 06:13:50;;;;;;;0.52;0.10;;;11.80;73.60;;;;;;4997087;28;87444;-72
2023/01/05 06:16:16;;;;;;;1.20;0.17;;;11.80;72.40;;;;;;4997288;28;87513;-73
2023/01/05 06:18:41;;;;;;;0.60;0.03;;;11.70;72.90;;;;;;4994964;28;87600;-73
2023/01/05 06:21:08;;;;;;;0.80;0.10;;;11.70;72.80;;;;;;4994004;28;88034;-72
2023/01/05 06:23:33;;;;;;;1.30;0.10;;;11.80;71.30;;;;;;4996476;28;88318;-73
2023/01/05 06:25:59;;;;;;;1.25;0.10;;;11.70;70.80;;;;;;4997135;28;87558;-73
2023/01/05 06:28:24;;;;;;;1.75;0.10;;;11.70;72.30;;;;;;4997458;28;88803;-72
2023/01/05 06:30:50;;;;;;;1.10;0.17;;;11.70;72.20;;;;;;4994982;28;88923;-73
2023/01/05 06:33:16;;;;;;;2.35;0.20;;;11.70;75.90;;;;;;4997988;28;87402;-73
2023/01/05 06:35:41;;;;;;;0.70;0.10;;;11.70;74.90;;;;;;4998259;28;87353;-73
2023/01/05 06:38:09;;;;;;;2.65;0.40;;;11.80;74.60;;;;;;4995367;28;87312;-74
2023/01/05 06:40:35;;;;;;;0.68;0.10;;;11.80;74.10;;;;;;4991837;28;88217;-73
2023/01/05 06:43:01;;;;;;;0.57;0.08;;;11.80;72.70;;;;;;4990503;28;87658;-74
2023/01/05 06:45:26;;;;;;;0.50;0.10;;;11.80;73.50;;;;;;4995903;28;87717;-74
2023/01/05 06:47:52;;;;;;;1.45;0.13;;;11.80;72.30;;;;;;4997299;28;86938;-73
2023/01/05 06:50:18;;;;;;;1.55;0.10;;;11.80;71.90;;;;;;4992345;28;89243;-73
2023/01/05 06:52:43;;;;;;;1.15;0.10;;;11.80;72.70;;;;;;4994719;28;87314;-73
2023/01/05 06:55:10;;;;;;;6.45;0.38;;;11.80;73.40;;;;;;4994514;28;88522;-73
2023/01/05 06:57:36;;;;;;;2.88;0.10;;;11.80;73.70;;;;;;4996669;28;87125;-73
2023/01/05 07:00:10;;;;;;;1.17;0.13;;;11.80;73.40;;;;;;4997403;28;88211;-73
2023/01/05 07:02:36;;;;;;;4.13;0.20;;;11.80;74.30;;;;;;4994088;28;89638;-73
2023/01/05 07:05:02;;;;;;;5.05;0.50;;;11.80;74.60;;;;;;4998223;28;87537;-73
2023/01/05 07:07:28;;;;;;;5.75;0.60;;;11.90;74.30;;;;;;4994871;28;87303;-73
2023/01/05 07:09:53;;;;;;;3.03;0.30;;;11.90;75.10;;;;;;4996422;28;89404;-72
2023/01/05 07:12:19;;;;;;;2.85;0.30;;;11.90;78.70;;;;;;4996570;28;87963;-74
2023/01/05 07:14:45;;;;;;;4.90;0.75;;;12.00;78.10;;;;;;4997643;28;87148;-72
2023/01/05 07:17:14;;;;;;;2.47;0.57;;;12.00;77.80;;;;;;4992684;28;87510;-73
2023/01/05 07:19:39;;;;;;;3.50;0.40;;;12.10;77.50;;;;;;4996308;28;89135;-73
2023/01/05 07:22:05;;;;;;;7.97;1.05;;;12.10;76.70;;;;;;4994960;28;88779;-74
2023/01/05 07:24:31;;;;;;;3.10;0.57;;;12.20;76.50;;;;;;4989070;28;87363;-73
2023/01/05 07:27:00;;;;;;;2.97;0.45;;;12.10;75.70;;;;;;4993350;28;87222;-72
2023/01/05 07:29:26;;;;;;;2.70;0.40;;;12.10;76.10;;;;;;4993427;28;90286;-72
2023/01/05 07:31:52;;;;;;;2.95;0.50;;;12.10;77.90;;;;;;4984023;28;90013;-73
2023/01/05 07:34:18;;;;;;;2.78;0.32;;;12.10;77.40;;;;;;4987639;28;87838;-72
2023/01/05 07:36:44;;;;;;;3.50;0.30;;;12.10;78.10;;;;;;4986488;28;87069;-72
2023/01/05 07:39:10;;;;;;;1.45;0.20;;;12.20;78.90;;;;;;4988061;28;89048;-72
2023/01/05 07:41:35;;;;;;;1.05;0.10;;;12.30;79.70;;;;;;4993985;28;87457;-72
2023/01/05 07:44:01;;;;;;;2.65;0.10;;;12.30;78.40;;;;;;4992596;28;88508;-72
2023/01/05 07:46:27;;;;;;;2.53;0.10;;;12.20;74.10;;;;;;4994518;28;87757;-72
2023/01/05 07:48:52;;;;;;;1.13;0.20;;;12.00;72.60;;;;;;4986242;28;88116;-72
2023/01/05 07:51:21;;;;;;;1.30;0.20;;;11.70;72.10;;;;;;4986753;28;90156;-71
2023/01/05 07:53:47;;;;;;;1.23;0.25;;;11.50;72.60;;;;;;4992085;28;87503;-72
2023/01/05 07:56:13;;;;;;;1.58;0.20;;;11.40;72.70;;;;;;4980992;28;87528;-72
2023/01/05 07:58:40;;;;;;;1.42;0.30;;;11.30;73.20;;;;;;4987650;28;89157;-73
2023/01/05 08:01:08;;;;;;;4.45;0.20;;;11.30;73.10;;;;;;4983972;28;87792;-73
2023/01/05 08:03:34;;;;;;;3.28;0.30;;;11.20;73.30;;;;;;4985152;28;88845;-73
2023/01/05 08:06:07;;;;;;;1.55;0.20;;;11.10;74.70;;;;;;4990330;28;88913;-72
2023/01/05 08:08:33;;;;;;;1.88;0.17;;;11.20;75.60;;;;;;4995695;28;90323;-72
2023/01/05 08:11:01;;;;;;;1.20;0.20;;;11.30;75.90;;;;;;4995872;28;88198;-72
2023/01/05 08:16:12;;;;;;;0.77;0.10;;;11.60;75.50;;;;;;4994201;28;87545;-72
2023/01/05 08:18:37;;;;;;;0.82;0.10;;;11.60;76.30;;;;;;4992467;28;88479;-72
2023/01/05 08:21:03;;;;;;;2.90;0.13;;;11.60;75.30;;;;;;4991119;28;88747;-72
2023/01/05 08:23:30;;;;;;;1.27;0.20;;;11.50;76.00;;;;;;4982410;28;88541;-72
2023/01/05 08:25:56;;;;;;;1.15;0.10;;;11.60;76.70;;;;;;4991892;28;86732;-71
2023/01/05 08:28:24;;;;;;;1.15;0.10;;;11.60;78.00;;;;;;4991533;28;88679;-70
2023/01/05 08:30:50;;;;;;;1.90;0.20;;;11.80;79.00;;;;;;4989572;28;87522;-71
2023/01/05 08:33:16;;;;;;;1.85;0.20;;;11.90;79.50;;;;;;4985368;28;89888;-71
2023/01/05 08:35:43;;;;;;;1.65;0.20;;;12.10;79.20;;;;;;4988433;28;87637;-71
2023/01/05 08:38:09;;;;;;;1.45;0.25;;;12.30;79.50;;;;;;4993956;28;91157;-72
2023/01/05 08:40:36;;;;;;;2.10;0.22;;;12.40;79.40;;;;;;4993758;28;89472;-71
2023/01/05 08:43:03;;;;;;;1.30;0.20;;;12.40;78.60;;;;;;4992007;28;87900;-72
2023/01/05 08:45:29;;;;;;;2.28;0.30;;;12.40;77.10;;;;;;4987746;28;87788;-72
2023/01/05 08:47:55;;;;;;;3.40;0.30;;;12.40;76.00;;;;;;4987447;28;88189;-71
2023/01/05 08:50:21;;;;;;;1.58;0.20;;;12.30;76.20;;;;;;4985899;28;87175;-71
2023/01/05 08:52:47;;;;;;;2.17;0.22;;;12.30;76.40;;;;;;4986323;28;88720;-71
2023/01/05 08:55:12;;;;;;;3.55;0.20;;;12.20;77.80;;;;;;4989947;28;87330;-72
2023/01/05 08:57:38;;;;;;;1.80;0.20;;;12.20;77.50;;;;;;4985104;28;88715;-69
2023/01/05 09:00:04;;;;;;;3.30;0.20;;;12.20;77.90;;;;;;4984782;28;87808;-71
2023/01/05 09:02:30;;;;;;;1.85;0.28;;;12.20;79.30;;;;;;4987286;28;88117;-71
2023/01/05 09:04:56;;;;;;;4.38;0.20;;;12.20;79.40;;;;;;4988184;28;86982;-72
2023/01/05 09:07:22;;;;;;;3.15;0.22;;;12.20;78.80;;;;;;4991427;28;88937;-72
2023/01/05 09:09:47;;;;;;;2.70;0.40;;;12.20;78.70;;;;;;4985225;28;88428;-71
2023/01/05 09:12:13;;;;;;;1.92;0.30;;;12.30;78.80;;;;;;4989425;28;87641;-71
2023/01/05 09:14:39;;;;;;;1.60;0.20;;;12.30;78.60;;;;;;4994414;28;86702;-72
2023/01/05 09:17:04;;;;;;;1.95;0.20;;;12.30;77.90;;;;;;4990540;28;88092;-72
2023/01/05 09:19:30;;;;;;;1.33;0.20;;;12.30;77.60;;;;;;4997595;28;87798;-72
2023/01/05 09:21:56;;;;;;;4.95;0.20;;;12.30;75.80;;;;;;4996148;28;88349;-70
2023/01/05 09:24:21;;;;;;;3.10;0.20;;;12.30;75.10;;;;;;5002742;28;87624;-72
2023/01/05 09:26:47;;;;;;;6.18;0.20;;;12.40;75.10;;;;;;4985873;28;89155;-72
2023/01/05 09:29:13;;;;;;;1.98;0.32;;;12.40;75.30;;;;;;4984743;28;87777;-73
2023/01/05 09:31:42;;;;;;;2.17;0.10;;;12.40;75.40;;;;;;4988702;28;88504;-72
2023/01/05 09:34:08;;;;;;;2.95;0.20;;;12.40;75.30;;;;;;4998954;28;87799;-72
2023/01/05 09:36:35;;;;;;;2.05;0.30;;;12.40;76.40;;;;;;4986369;28;90013;-72
2023/01/05 09:39:01;;;;;;;2.78;0.10;;;12.40;76.50;;;;;;4990867;28;87991;-72
2023/01/05 09:41:35;;;;;;;2.38;0.20;;;12.50;76.50;;;;;;4988412;28;87784;-72
2023/01/05 09:44:26;;;;;;;1.80;0.28;;;12.40;77.10;;;;;;4983367;28;88641;-72
2023/01/05 09:46:54;;;;;;;1.95;0.30;;;12.50;76.70;;;;;;4984014;28;88681;-72
2023/01/05 09:49:22;;;;;;;1.65;0.20;;;12.40;76.50;;;;;;4986124;28;88968;-70
2023/01/05 09:51:53;;;;;;;3.70;0.20;;;12.40;77.30;;;;;;4981155;28;89031;-72
2023/01/05 09:54:21;;;;;;;1.77;0.30;;;12.40;76.90;;;;;;4984339;28;87644;-71
2023/01/05 09:56:48;;;;;;;4.38;0.60;;;12.40;77.40;;;;;;4984143;28;88908;-71
2023/01/05 09:59:36;;;;;;;3.47;0.73;;;12.40;76.90;;;;;;4990748;28;88378;-71
2023/01/05 10:02:34;;;;;;;4.43;0.60;;;12.40;77.20;;;;;;4991807;28;87401;-72
2023/01/05 10:05:03;;;;;;;3.03;0.40;;;12.50;77.70;;;;;;4985045;28;86481;-72
2023/01/05 10:07:29;;;;;;;1.73;0.20;;;12.60;78.20;;;;;;4986771;28;88280;-72
2023/01/05 10:09:59;;;;;;;1.02;0.03;;;12.60;78.20;;;;;;4984401;28;88907;-72
2023/01/05 10:13:07;;;;;;;0.90;0.17;;;12.70;79.00;;;;;;4984523;28;89661;-72
2023/01/05 10:15:47;;;;;;;0.70;0.10;;;12.90;78.90;;;;;;4987602;28;87409;-70
2023/01/05 10:18:22;;;;;;;0.90;0.05;;;13.10;80.00;;;;;;4980357;28;88959;-72
2023/01/05 10:21:09;;;;;;;0.65;0.10;;;13.30;81.30;;;;;;4992709;28;88346;-72
2023/01/05 10:23:38;;;;;;;5.20;0.88;;;13.40;81.90;;;;;;4989734;28;88354;-71
2023/01/05 10:26:25;;;;;;;2.30;0.10;;;13.50;82.10;;;;;;4989769;28;89571;-72
2023/01/05 10:29:04;;;;;;;1.10;0.00;;;13.60;82.10;;;;;;4990099;28;87849;-71
2023/01/05 10:31:42;;;;;;;4.13;0.00;;;13.70;82.20;;;;;;4988579;28;88020;-71
2023/01/05 10:34:18;;;;;;;0.40;0.03;;;13.90;81.60;;;;;;5003544;28;87201;-71
2023/01/05 10:36:57;;;;;;;0.57;0.00;;;14.00;81.20;;;;;;4981562;28;89739;-72
2023/01/05 10:39:44;;;;;;;0.35;0.00;;;14.10;81.60;;;;;;4982385;28;88853;-71
2023/01/05 10:42:12;;;;;;;0.35;0.00;;;14.20;80.90;;;;;;4984033;28;87803;-72
2023/01/05 10:44:50;;;;;;;0.45;0.00;;;14.30;80.50;;;;;;4981511;28;89284;-72
2023/01/05 10:47:15;;;;;;;0.57;0.00;;;14.40;80.50;;;;;;4983866;28;87563;-72
2023/01/05 10:49:45;;;;;;;0.30;0.00;;;14.50;80.40;;;;;;4985468;28;89363;-72
2023/01/05 10:52:17;;;;;;;1.48;0.00;;;14.50;80.40;;;;;;4986880;28;89465;-72
2023/01/05 10:55:01;;;;;;;0.55;0.00;;;14.60;80.10;;;;;;4983774;28;87582;-72
2023/01/05 10:57:32;;;;;;;5.75;0.10;;;14.60;80.10;;;;;;4988224;28;87228;-72
2023/01/05 11:00:09;;;;;;;0.50;0.10;;;14.60;79.20;;;;;;4983823;28;89099;-71
2023/01/05 11:02:47;;;;;;;0.63;0.10;;;14.60;79.30;;;;;;4983863;28;88585;-72
2023/01/05 11:05:35;;;;;;;2.88;0.10;;;14.50;78.90;;;;;;4984547;28;89059;-72
2023/01/05 11:08:06;;;;;;;1.90;0.15;;;14.40;77.90;;;;;;4983181;28;87541;-73
2023/01/05 11:10:46;;;;;;;4.22;0.20;;;14.20;76.10;;;;;;4986876;28;89402;-73
2023/01/05 11:13:15;;;;;;;0.85;0.20;;;14.00;76.70;;;;;;4986131;28;88790;-73
2023/01/05 11:15:47;;;;;;;1.67;0.22;;;13.90;77.30;;;;;;4981653;28;87543;-72
2023/01/05 11:18:38;;;;;;;1.30;0.10;;;13.90;77.90;;;;;;4980931;28;87503;-73
2023/01/05 11:21:04;;;;;;;1.95;0.10;;;14.10;78.00;;;;;;4977166;28;88444;-72
2023/01/05 11:23:36;;;;;;;0.85;0.20;;;14.20;76.80;;;;;;4985796;28;87634;-71
2023/01/05 11:26:35;;;;;;;4.38;0.15;;;14.30;75.50;;;;;;4985089;28;89138;-71
2023/01/05 11:29:12;;;;;;;3.42;0.40;;;14.40;74.90;;;;;;4977578;28;87749;-71
2023/01/05 11:31:43;;;;;;;0.75;0.10;;;14.30;74.30;;;;;;4988205;28;89170;-72
2023/01/05 11:34:15;;;;;;;0.73;0.10;;;14.50;74.30;;;;;;4982475;28;87828;-72
2023/01/05 11:36:42;;;;;;;0.65;0.20;;;14.50;75.00;;;;;;4980473;28;87684;-72
2023/01/05 11:39:36;;;;;;;0.77;0.10;;;14.70;75.00;;;;;;4972830;28;89485;-71
2023/01/05 11:42:18;;;;;;;0.38;0.10;;;14.70;74.90;;;;;;4985881;28;90695;-73
2023/01/05 11:44:49;;;;;;;0.73;0.10;;;14.70;75.70;;;;;;4985991;28;87672;-72
2023/01/05 11:47:21;;;;;;;0.10;0.00;;;14.70;76.10;;;;;;4980405;28;88404;-71
2023/01/05 11:49:48;;;;;;;0.50;0.00;;;14.70;75.50;;;;;;4985106;28;86329;-70
2023/01/05 11:52:25;;;;;;;0.50;0.00;;;14.80;76.30;;;;;;4985618;28;88749;-71
2023/01/05 11:54:51;;;;;;;0.30;0.00;;;14.90;75.60;;;;;;4986705;28;87328;-71
2023/01/05 11:57:24;;;;;;;0.82;0.08;;;15.10;75.30;;;;;;4986684;28;88352;-72
2023/01/05 11:59:50;;;;;;;4.03;0.00;;;15.10;73.90;;;;;;4985626;28;89717;-72
2023/01/05 12:02:38;;;;;;;0.30;0.00;;;15.20;74.70;;;;;;4984192;28;90404;-71
2023/01/05 12:05:23;;;;;;;0.50;0.00;;;15.30;74.00;;;;;;4986033;28;88842;-71
2023/01/05 12:08:11;;;;;;;0.30;0.00;;;15.30;74.60;;;;;;4984416;28;87653;-72
2023/01/05 12:10:45;;;;;;;1.75;0.00;;;15.30;73.70;;;;;;4980236;28;89223;-71
2023/01/05 12:13:18;;;;;;;0.75;0.10;;;15.20;73.70;;;;;;4984210;28;88240;-71
2023/01/05 12:15:44;;;;;;;0.30;0.03;;;15.30;73.60;;;;;;4978380;28;90243;-71
2023/01/05 12:18:24;;;;;;;0.40;0.00;;;15.30;72.90;;;;;;4982087;28;87447;-72
2023/01/05 12:21:01;;;;;;;0.30;0.00;;;15.40;72.70;;;;;;4979413;28;88778;-71
2023/01/05 12:23:48;;;;;;;0.20;0.00;;;15.50;73.00;;;;;;4976024;28;91301;-72
2023/01/05 12:26:16;;;;;;;0.77;0.00;;;15.50;71.10;;;;;;4987978;28;92166;-73
2023/01/05 12:29:24;;;;;;;6.50;0.30;;;15.50;71.20;;;;;;4984731;28;87368;-73
2023/01/05 12:32:10;;;;;;;0.30;0.03;;;15.70;71.40;;;;;;4997441;28;87600;-73
2023/01/05 12:34:36;;;;;;;0.60;0.10;;;15.80;70.30;;;;;;4988603;28;88045;-72
2023/01/05 12:37:07;;;;;;;0.25;0.00;;;15.70;71.10;;;;;;4995220;28;87712;-72
2023/01/05 12:39:50;;;;;;;1.40;0.00;;;15.80;69.50;;;;;;5002192;28;87398;-72
2023/01/05 12:42:26;;;;;;;0.80;0.03;;;15.70;69.00;;;;;;4996534;28;86394;-72
2023/01/05 12:45:10;;;;;;;1.10;0.10;;;15.70;70.20;;;;;;4995858;28;88688;-72
2023/01/05 12:47:45;;;;;;;0.75;0.20;;;15.80;70.00;;;;;;4996236;28;88893;-72
2023/01/05 12:50:35;;;;;;;1.23;0.00;;;15.70;68.60;;;;;;4988986;28;88407;-72
2023/01/05 12:53:24;;;;;;;1.98;0.30;;;15.70;69.50;;;;;;4983719;28;87439;-72
2023/01/05 12:55:58;;;;;;;2.33;0.30;;;15.50;69.70;;;;;;4991824;28;87793;-74
2023/01/05 12:58:35;;;;;;;1.88;0.47;;;15.20;70.70;;;;;;4994554;28;88015;-72
2023/01/05 13:01:05;;;;;;;3.38;0.30;;;15.00;73.30;;;;;;4983086;28;87394;-72
2023/01/05 13:03:41;;;;;;;2.70;0.30;;;14.90;72.10;;;;;;4993368;28;87627;-72
2023/01/05 13:06:15;;;;;;;13.93;0.70;;;14.90;72.40;;;;;;4995563;28;87821;-72
2023/01/05 13:08:53;;;;;;;4.00;0.57;;;14.80;71.80;;;;;;5002167;28;86645;-72
2023/01/05 13:11:36;;;;;;;7.57;0.30;;;14.80;72.10;;;;;;4997236;28;87392;-72
2023/01/05 13:14:05;;;;;;;7.88;0.40;;;14.80;72.50;;;;;;4996325;28;87507;-73
2023/01/05 13:16:44;;;;;;;7.38;0.30;;;14.80;72.50;;;;;;4990569;28;89324;-73
2023/01/05 13:19:33;;;;;;;5.75;0.40;;;14.90;72.40;;;;;;5008491;28;88265;-73
2023/01/05 13:22:03;;;;;;;15.43;1.13;;;14.90;72.90;;;;;;4998699;28;87552;-73
2023/01/05 13:24:39;;;;;;;3.13;0.40;;;14.80;72.50;;;;;;4994155;28;88075;-73
2023/01/05 13:27:05;;;;;;;1.98;0.40;;;14.80;72.00;;;;;;4991425;28;88152;-70
2023/01/05 13:29:35;;;;;;;1.85;0.30;;;14.70;72.60;;;;;;4997881;28;87791;-73
2023/01/05 13:32:13;;;;;;;2.92;0.40;;;14.60;72.40;;;;;;4995826;28;87334;-73
2023/01/05 13:35:09;;;;;;;2.08;0.20;;;14.60;73.10;;;;;;4994960;28;86682;-73
2023/01/05 13:37:54;;;;;;;1.85;0.20;;;14.60;73.20;;;;;;4997976;28;87729;-73
2023/01/05 13:40:35;;;;;;;2.15;0.30;;;14.70;72.40;;;;;;4991932;28;88097;-73